TimeAKDT,TemperatureF,Dew PointF,Humidity,Sea Level PressureIn,VisibilityMPH,Wind Direction,Wind SpeedMPH,Gust SpeedMPH,PrecipitationIn,Events,Conditions,WindDirDegrees,DateUTC
12:56 AM,37.9,25.0,60,29.68,10.0,Calm,Calm,-,N/A,,Overcast,0,2013-09-18 08:56:00
1:56 AM,37.0,26.1,65,29.68,10.0,NNW,3.5,-,N/A,,Overcast,330,2013-09-18 09:56:00
2:56 AM,36.0,28.0,73,29.69,10.0,WSW,5.8,-,N/A,,Overcast,240,2013-09-18 10:56:00
3:56 AM,34.0,28.9,82,29.69,8.0,SSW,9.2,-,0.00,Snow,Light Snow,200,2013-09-18 11:56:00
4:46 AM,33.8,28.4,81,29.68,6.0,Variable,5.8,-,0.00,Snow,Light Snow,0,2013-09-18 12:46:00
4:54 AM,33.8,28.4,81,29.68,4.0,Variable,4.6,-,0.00,Snow,Light Snow,0,2013-09-18 12:54:00
4:56 AM,33.1,28.9,85,29.70,4.0,Variable,4.6,-,0.00,Snow,Light Snow,0,2013-09-18 12:56:00
5:56 AM,30.9,28.9,92,29.70,10.0,SSW,5.8,-,0.00,Snow,Light Snow,210,2013-09-18 13:56:00
6:20 AM,30.2,28.4,93,29.68,3.0,SSW,3.5,-,N/A,Snow,Light Snow,210,2013-09-18 14:20:00
6:55 AM,30.2,28.4,93,29.71,5.0,SSW,4.6,-,N/A,Snow,Light Snow,200,2013-09-18 14:55:00
7:25 AM,30.2,28.4,93,29.69,1.5,SSW,4.6,-,N/A,Snow,Light Snow,200,2013-09-18 15:25:00
7:55 AM,30.2,28.4,93,29.71,1.5,SSW,3.5,-,N/A,Snow,Light Snow,200,2013-09-18 15:55:00
8:11 AM,30.2,28.4,93,29.69,0.8,SSW,4.6,-,N/A,Snow,Light Snow,200,2013-09-18 16:11:00
8:47 AM,30.2,28.4,93,29.70,1.2,SW,3.5,-,N/A,Snow,Light Snow,230,2013-09-18 16:47:00
8:55 AM,30.2,28.4,93,29.72,1.2,SSW,3.5,-,N/A,Snow,Light Snow,200,2013-09-18 16:55:00
9:00 AM,30.2,28.4,93,-9999,3.0,SW,2.3,-,N/A,Snow,Light Snow,220,2013-09-18 17:00:00
9:24 AM,30.2,28.4,93,29.70,2.0,SSW,4.6,-,N/A,Snow,Light Snow,200,2013-09-18 17:24:00
9:59 AM,30.2,28.4,93,29.73,2.0,WSW,5.8,-,N/A,Snow,Light Snow,240,2013-09-18 17:59:00
10:14 AM,32.0,28.4,87,-9999,7.0,SW,4.6,-,N/A,,Overcast,230,2013-09-18 18:14:00
10:55 AM,32.0,28.4,87,29.73,7.0,WSW,4.6,-,N/A,,Mostly Cloudy,240,2013-09-18 18:55:00
11:55 AM,32.0,28.4,87,29.74,7.0,Calm,Calm,-,N/A,,Mostly Cloudy,0,2013-09-18 19:55:00
12:55 PM,33.8,28.4,81,29.74,10.0,SE,4.6,-,N/A,,Mostly Cloudy,130,2013-09-18 20:55:00
1:55 PM,33.8,28.4,81,29.75,10.0,SE,3.5,-,N/A,,Overcast,130,2013-09-18 21:55:00
1:58 PM,33.8,28.4,81,29.75,10.0,SE,3.5,-,N/A,,Overcast,130,2013-09-18 21:58:00
2:43 PM,35.6,28.4,75,29.73,25.0,Calm,Calm,-,N/A,,Overcast,0,2013-09-18 22:43:00
2:55 PM,35.6,28.4,75,29.75,25.0,Calm,Calm,-,N/A,,Overcast,0,2013-09-18 22:55:00
3:55 PM,35.6,28.4,75,29.75,25.0,SE,4.6,-,N/A,,Overcast,140,2013-09-18 23:55:00
4:55 PM,37.4,28.4,70,29.75,25.0,SW,6.9,-,N/A,,Mostly Cloudy,230,2013-09-19 00:55:00
5:55 PM,37.4,26.6,65,29.75,25.0,WSW,6.9,-,N/A,,Mostly Cloudy,250,2013-09-19 01:55:00
6:55 PM,37.4,26.6,65,29.75,25.0,SW,5.8,-,N/A,,Mostly Cloudy,230,2013-09-19 02:55:00
7:55 PM,35.6,26.6,70,29.73,25.0,SSW,5.8,-,N/A,,Mostly Cloudy,200,2013-09-19 03:55:00
8:55 PM,33.8,26.6,75,29.75,13.0,Variable,3.5,-,N/A,,Mostly Cloudy,0,2013-09-19 04:55:00
9:55 PM,30.2,28.4,93,29.75,7.0,Calm,Calm,-,N/A,,Mostly Cloudy,0,2013-09-19 05:55:00
10:56 PM,32.0,28.0,85,29.76,10.0,East,4.6,-,N/A,,Overcast,80,2013-09-19 06:56:00
11:56 PM,30.9,28.0,89,29.75,10.0,Calm,Calm,-,N/A,,Overcast,0,2013-09-19 07:56:00